Ajax, Kentucky
Current Conditions -  °F | °C
As of 3:24 PM on Thursday 27 Nov 2014 (Local Time) from KJKL Reporting Station
Overcast Overcast  
Wind Chill: 23°   Ceiling: 3300
Heat Index: 30°   Visibility: 10mi
Dew Point: 21°   Wind: 7mph
Humidity: 69%   Direction: NA
Pressure: 30.28"   Gusts: NA
Location:  37.3318°N, 83.1697°W
Report Text: KJKL 272024Z AUTO VRB06KT 10SM SCT022 SCT028 OVC033 M01/M06 A3028 RMK AO2 T10111061
Loading
Personal Weather Stations






























Interactive Weather Map New forecast layout! Learn more

10-Day Weather Forecast

Advertisements
Track Severe Weather on mobile